sensor_id;sensor_type;location;lat;lon;timestamp;P1;durP1;ratioP1;P2;durP2;ratioP2
73104;SDS011;61296;50.526;30.792;2024-01-06T00:15:00;24.17;;;8.73;;
73104;SDS011;61296;50.526;30.792;2024-01-06T00:30:34;20.35;;;8.25;;
73104;SDS011;61296;50.526;30.792;2024-01-06T00:46:07;22.52;;;8.00;;
73104;SDS011;61296;50.526;30.792;2024-01-06T01:01:39;29.98;;;11.35;;
73104;SDS011;61296;50.526;30.792;2024-01-06T01:17:13;15.05;;;6.65;;
73104;SDS011;61296;50.526;30.792;2024-01-06T01:32:45;12.77;;;4.90;;
73104;SDS011;61296;50.526;30.792;2024-01-06T01:48:19;12.35;;;5.45;;
73104;SDS011;61296;50.526;30.792;2024-01-06T02:03:53;17.65;;;7.68;;
73104;SDS011;61296;50.526;30.792;2024-01-06T02:19:26;15.75;;;6.28;;
73104;SDS011;61296;50.526;30.792;2024-01-06T02:34:59;14.20;;;6.07;;
73104;SDS011;61296;50.526;30.792;2024-01-06T02:50:33;11.95;;;5.18;;
73104;SDS011;61296;50.526;30.792;2024-01-06T03:06:05;10.50;;;4.18;;
73104;SDS011;61296;50.526;30.792;2024-01-06T03:21:38;15.13;;;5.72;;
73104;SDS011;61296;50.526;30.792;2024-01-06T03:37:12;8.45;;;3.25;;
73104;SDS011;61296;50.526;30.792;2024-01-06T03:52:45;6.53;;;3.47;;
73104;SDS011;61296;50.526;30.792;2024-01-06T04:08:18;9.88;;;3.92;;
73104;SDS011;61296;50.526;30.792;2024-01-06T04:23:52;7.47;;;3.03;;
73104;SDS011;61296;50.526;30.792;2024-01-06T04:39:25;6.53;;;2.75;;
73104;SDS011;61296;50.526;30.792;2024-01-06T04:54:58;6.70;;;3.35;;
73104;SDS011;61296;50.526;30.792;2024-01-06T05:10:31;5.10;;;2.47;;
73104;SDS011;61296;50.526;30.792;2024-01-06T05:26:06;7.22;;;3.08;;
73104;SDS011;61296;50.526;30.792;2024-01-06T05:41:39;12.88;;;3.90;;
73104;SDS011;61296;50.526;30.792;2024-01-06T05:57:13;4.32;;;2.40;;
73104;SDS011;61296;50.526;30.792;2024-01-06T06:12:46;5.60;;;2.50;;
73104;SDS011;61296;50.526;30.792;2024-01-06T06:28:20;6.78;;;3.10;;
73104;SDS011;61296;50.526;30.792;2024-01-06T06:43:53;5.43;;;2.53;;
73104;SDS011;61296;50.526;30.792;2024-01-06T06:59:27;5.05;;;2.70;;
73104;SDS011;61296;50.526;30.792;2024-01-06T07:15:01;6.82;;;2.97;;
73104;SDS011;61296;50.526;30.792;2024-01-06T07:30:37;6.77;;;3.10;;
73104;SDS011;61296;50.526;30.792;2024-01-06T07:46:11;7.50;;;3.50;;
73104;SDS011;61296;50.526;30.792;2024-01-06T08:01:51;11.32;;;4.25;;
73104;SDS011;61296;50.526;30.792;2024-01-06T08:17:27;9.57;;;3.40;;
73104;SDS011;61296;50.526;30.792;2024-01-06T08:33:00;8.30;;;4.55;;
73104;SDS011;61296;50.526;30.792;2024-01-06T08:48:34;8.05;;;4.25;;
73104;SDS011;61296;50.526;30.792;2024-01-06T09:04:07;11.30;;;4.60;;
73104;SDS011;61296;50.526;30.792;2024-01-06T09:19:41;10.60;;;5.18;;
73104;SDS011;61296;50.526;30.792;2024-01-06T09:35:15;14.50;;;5.78;;
73104;SDS011;61296;50.526;30.792;2024-01-06T09:50:49;15.55;;;5.72;;
73104;SDS011;61296;50.526;30.792;2024-01-06T10:06:27;15.57;;;6.05;;
73104;SDS011;61296;50.526;30.792;2024-01-06T10:22:00;16.00;;;6.63;;
73104;SDS011;61296;50.526;30.792;2024-01-06T10:37:35;12.93;;;6.10;;
73104;SDS011;61296;50.526;30.792;2024-01-06T10:53:10;10.07;;;4.63;;
73104;SDS011;61296;50.526;30.792;2024-01-06T11:24:36;15.80;;;6.85;;
73104;SDS011;61296;50.526;30.792;2024-01-06T11:55:59;14.55;;;6.65;;
73104;SDS011;61296;50.526;30.792;2024-01-06T12:11:33;17.27;;;7.13;;
73104;SDS011;61296;50.526;30.792;2024-01-06T12:27:06;16.48;;;7.28;;
73104;SDS011;61296;50.526;30.792;2024-01-06T12:42:44;15.93;;;7.25;;
73104;SDS011;61296;50.526;30.792;2024-01-06T12:58:18;11.95;;;6.07;;
73104;SDS011;61296;50.526;30.792;2024-01-06T13:13:51;20.10;;;8.75;;
73104;SDS011;61296;50.526;30.792;2024-01-06T13:29:24;20.55;;;7.82;;
73104;SDS011;61296;50.526;30.792;2024-01-06T13:44:57;24.63;;;10.18;;
73104;SDS011;61296;50.526;30.792;2024-01-06T14:00:33;24.23;;;9.53;;
73104;SDS011;61296;50.526;30.792;2024-01-06T14:16:07;24.95;;;9.98;;
73104;SDS011;61296;50.526;30.792;2024-01-06T14:31:41;46.45;;;18.67;;
73104;SDS011;61296;50.526;30.792;2024-01-06T14:47:16;38.25;;;12.90;;
73104;SDS011;61296;50.526;30.792;2024-01-06T15:02:49;23.17;;;9.75;;
73104;SDS011;61296;50.526;30.792;2024-01-06T15:18:22;29.60;;;12.18;;
73104;SDS011;61296;50.526;30.792;2024-01-06T15:33:57;25.30;;;10.52;;
73104;SDS011;61296;50.526;30.792;2024-01-06T15:49:30;26.45;;;9.80;;
73104;SDS011;61296;50.526;30.792;2024-01-06T16:05:02;40.10;;;16.17;;
73104;SDS011;61296;50.526;30.792;2024-01-06T16:20:37;48.72;;;19.58;;
73104;SDS011;61296;50.526;30.792;2024-01-06T16:36:12;94.45;;;35.15;;
73104;SDS011;61296;50.526;30.792;2024-01-06T16:51:49;87.50;;;28.97;;
73104;SDS011;61296;50.526;30.792;2024-01-06T17:07:23;82.13;;;29.60;;
73104;SDS011;61296;50.526;30.792;2024-01-06T17:22:56;58.28;;;23.50;;
73104;SDS011;61296;50.526;30.792;2024-01-06T17:38:38;44.53;;;15.27;;
73104;SDS011;61296;50.526;30.792;2024-01-06T17:54:10;29.42;;;11.95;;
73104;SDS011;61296;50.526;30.792;2024-01-06T18:09:44;37.13;;;13.60;;
73104;SDS011;61296;50.526;30.792;2024-01-06T18:25:17;44.60;;;17.42;;
73104;SDS011;61296;50.526;30.792;2024-01-06T18:40:49;47.15;;;16.42;;
73104;SDS011;61296;50.526;30.792;2024-01-06T18:56:23;39.67;;;15.45;;
73104;SDS011;61296;50.526;30.792;2024-01-06T19:12:02;33.47;;;13.13;;
73104;SDS011;61296;50.526;30.792;2024-01-06T19:27:30;21.58;;;8.93;;
73104;SDS011;61296;50.526;30.792;2024-01-06T19:43:06;20.08;;;7.97;;
73104;SDS011;61296;50.526;30.792;2024-01-06T19:58:42;21.30;;;9.00;;
73104;SDS011;61296;50.526;30.792;2024-01-06T20:14:16;29.67;;;10.97;;
73104;SDS011;61296;50.526;30.792;2024-01-06T20:29:49;25.92;;;10.02;;
73104;SDS011;61296;50.526;30.792;2024-01-06T20:45:23;20.20;;;8.32;;
73104;SDS011;61296;50.526;30.792;2024-01-06T21:00:56;23.30;;;9.23;;
73104;SDS011;61296;50.526;30.792;2024-01-06T21:16:29;19.98;;;8.07;;
73104;SDS011;61296;50.526;30.792;2024-01-06T21:32:02;16.85;;;8.10;;
73104;SDS011;61296;50.526;30.792;2024-01-06T21:47:36;15.95;;;7.60;;
73104;SDS011;61296;50.526;30.792;2024-01-06T22:03:10;22.52;;;8.48;;
73104;SDS011;61296;50.526;30.792;2024-01-06T22:18:42;22.25;;;7.00;;
73104;SDS011;61296;50.526;30.792;2024-01-06T22:34:15;18.10;;;6.82;;
73104;SDS011;61296;50.526;30.792;2024-01-06T22:49:50;16.42;;;5.60;;
73104;SDS011;61296;50.526;30.792;2024-01-06T23:05:22;18.67;;;6.00;;
73104;SDS011;61296;50.526;30.792;2024-01-06T23:20:55;9.70;;;4.72;;
73104;SDS011;61296;50.526;30.792;2024-01-06T23:36:28;11.95;;;4.90;;
73104;SDS011;61296;50.526;30.792;2024-01-06T23:52:01;14.38;;;5.57;;
